Time;durP1;ratioP1;P1;durP2;ratioP2;P2;SDS_P1;SDS_P2;PMS_P1;PMS_P2;Temp;Humidity;BMP_temperature;BMP_pressure;BME280_temperature;BME280_humidity;BME280_pressure;Samples;Min_cycle;Max_cycle;Signal;HPM_P1;HPM_P2
2023/10/08 00:02:22;;;;;;;23.55;5.50;;;;;;;-144.73;100.00;54670.44;4954243;28;20039;-78
2023/10/08 00:04:50;;;;;;;26.75;4.97;;;;;;;-144.73;100.00;54645.78;4971456;28;20018;-78
2023/10/08 00:07:21;;;;;;;29.80;6.90;;;;;;;-144.73;100.00;54637.59;4954685;28;20039;-78
2023/10/08 00:09:53;;;;;;;29.88;6.15;;;;;;;-144.73;100.00;54625.28;4959960;28;20018;-78
2023/10/08 00:12:20;;;;;;;33.58;8.07;;;;;;;-144.73;100.00;54678.63;4957174;28;20035;-78
2023/10/08 00:14:49;;;;;;;29.23;6.47;;;;;;;-144.73;100.00;54641.69;4957760;28;20014;-78
2023/10/08 00:17:17;;;;;;;28.85;6.80;;;;;;;-144.73;100.00;54645.78;4957463;28;20038;-78
2023/10/08 00:19:43;;;;;;;32.22;7.15;;;;;;;-144.73;100.00;54649.91;4958014;28;20026;-78
2023/10/08 00:22:13;;;;;;;32.35;7.32;;;;;;;-144.73;100.00;54635.53;4956765;28;20192;-78
2023/10/08 00:24:41;;;;;;;26.25;7.78;;;;;;;-144.73;100.00;54637.59;4956191;29;20070;-78
2023/10/08 00:27:08;;;;;;;34.22;7.20;;;;;;;-144.73;100.00;54627.31;4939569;29;20039;-78
2023/10/08 00:29:33;;;;;;;29.27;8.43;;;;;;;-144.73;100.00;54662.22;4964848;28;20042;-80
2023/10/08 00:31:59;;;;;;;41.35;9.77;;;;;;;-144.73;100.00;54654.00;4964604;28;20031;-78
2023/10/08 00:34:27;;;;;;;23.33;8.35;;;;;;;-144.73;100.00;54637.59;4968941;28;20023;-78
2023/10/08 00:36:52;;;;;;;39.78;8.07;;;;;;;-144.73;100.00;54674.53;4955508;28;20027;-78
2023/10/08 00:39:34;;;;;;;35.58;8.30;;;;;;;-144.73;100.00;54641.69;4956188;28;20027;-78
2023/10/08 00:41:59;;;;;;;37.80;8.40;;;;;;;-144.73;100.00;54629.38;4955191;28;20038;-77
2023/10/08 00:44:29;;;;;;;33.97;7.93;;;;;;;-144.73;100.00;54649.91;4955147;28;20023;-77
2023/10/08 00:47:00;;;;;;;32.28;8.00;;;;;;;-144.73;100.00;54637.59;4958418;28;20031;-78
2023/10/08 00:57:25;;;;;;;36.60;8.75;;;;;;;-144.73;100.00;54645.78;4978540;28;20039;-79
2023/10/08 00:59:54;;;;;;;39.15;8.38;;;;;;;-144.73;100.00;54658.13;4976869;28;20113;-79
2023/10/08 01:02:27;;;;;;;31.23;7.55;;;;;;;-144.73;100.00;54645.78;4959252;28;20042;-79
2023/10/08 01:04:56;;;;;;;40.15;7.95;;;;;;;-144.73;100.00;54662.22;4954893;28;20134;-79
2023/10/08 01:07:23;;;;;;;32.28;7.25;;;;;;;-144.73;100.00;54645.78;4971873;28;20038;-79
2023/10/08 01:09:59;;;;;;;34.53;7.00;;;;;;;-144.73;100.00;54674.53;5022638;28;20577;-78
2023/10/08 01:12:33;;;;;;;33.00;7.00;;;;;;;-144.73;100.00;54658.13;4958515;28;20038;-78
2023/10/08 01:15:16;;;;;;;26.55;5.93;;;;;;;-144.73;100.00;54641.69;4955055;28;20034;-78
2023/10/08 01:17:46;;;;;;;24.55;5.72;;;;;;;-144.73;100.00;54617.06;4955966;28;20118;-78
2023/10/08 01:20:33;;;;;;;33.42;6.38;;;;;;;-144.73;100.00;54625.28;4958183;28;20072;-78
2023/10/08 01:23:09;;;;;;;28.08;6.90;;;;;;;-144.73;100.00;54662.22;4956401;28;20027;-76
2023/10/08 01:25:36;;;;;;;20.20;5.20;;;;;;;-144.73;100.00;54633.47;4984133;28;20020;-77
2023/10/08 01:28:08;;;;;;;25.58;6.15;;;;;;;-144.73;100.00;54596.53;4955301;28;20027;-77
2023/10/08 01:30:35;;;;;;;35.33;6.20;;;;;;;-144.73;100.00;54678.63;4954117;28;20030;-77
2023/10/08 01:33:02;;;;;;;22.33;4.78;;;;;;;-144.73;100.00;54641.69;4955656;28;20035;-76
2023/10/08 01:35:31;;;;;;;33.15;6.10;;;;;;;-144.73;100.00;54662.22;4962621;28;20015;-77
2023/10/08 01:37:59;;;;;;;33.60;5.80;;;;;;;-144.73;100.00;54641.69;4953669;28;20046;-76
2023/10/08 01:40:25;;;;;;;23.38;4.15;;;;;;;-144.73;100.00;54641.69;5018168;28;20022;-79
2023/10/08 01:42:51;;;;;;;25.95;4.90;;;;;;;-144.73;100.00;54649.91;4971039;28;20042;-76
2023/10/08 01:45:18;;;;;;;25.70;5.70;;;;;;;-144.73;100.00;54660.16;4954566;28;20030;-76
2023/10/08 01:47:44;;;;;;;28.30;4.88;;;;;;;-144.73;100.00;54654.00;4954111;28;20103;-76
2023/10/08 01:50:21;;;;;;;28.35;5.65;;;;;;;-144.73;100.00;54670.44;4954499;28;20022;-76
2023/10/08 01:52:51;;;;;;;29.83;5.72;;;;;;;-144.73;100.00;54645.78;4952980;28;20038;-76
2023/10/08 01:55:18;;;;;;;30.23;5.15;;;;;;;-144.73;100.00;54641.69;4955902;28;20018;-75
2023/10/08 01:57:45;;;;;;;26.35;4.45;;;;;;;-144.73;100.00;54637.59;4951398;28;20113;-75
2023/10/08 02:00:11;;;;;;;35.13;4.35;;;;;;;-144.73;100.00;54660.16;4954525;28;20480;-75
2023/10/08 02:02:36;;;;;;;23.10;4.22;;;;;;;-144.73;100.00;54678.63;4952641;28;20027;-75
2023/10/08 02:05:04;;;;;;;17.55;4.07;;;;;;;-144.73;100.00;54660.16;4951681;28;20023;-75
2023/10/08 02:07:30;;;;;;;23.20;4.68;;;;;;;-144.73;100.00;54633.47;5027519;28;20088;-75
2023/10/08 02:09:57;;;;;;;19.80;4.20;;;;;;;-144.73;100.00;54633.47;4973537;28;20019;-75
2023/10/08 02:12:23;;;;;;;28.40;5.18;;;;;;;-144.73;100.00;54633.47;4953411;28;20045;-75
2023/10/08 02:14:48;;;;;;;23.35;3.50;;;;;;;-144.73;100.00;54670.44;4968638;28;20026;-74
2023/10/08 02:17:14;;;;;;;23.02;3.75;;;;;;;-144.73;100.00;54629.38;4953926;28;20059;-74
2023/10/08 02:19:41;;;;;;;28.80;4.72;;;;;;;-144.73;100.00;54647.84;5018685;28;20019;-74
2023/10/08 02:22:09;;;;;;;17.85;3.88;;;;;;;-144.73;100.00;54639.63;4963282;28;20047;-74
2023/10/08 02:24:36;;;;;;;23.08;3.60;;;;;;;-144.73;100.00;54649.91;4953459;28;20031;-74
2023/10/08 02:27:01;;;;;;;25.70;4.25;;;;;;;-144.73;100.00;54654.00;4980547;28;20040;-74
2023/10/08 02:29:29;;;;;;;20.85;3.58;;;;;;;-144.73;100.00;54617.06;4971287;28;20026;-74
2023/10/08 02:31:56;;;;;;;22.38;4.03;;;;;;;-144.73;100.00;54639.63;4984993;28;20078;-74
2023/10/08 02:34:21;;;;;;;22.70;3.75;;;;;;;-144.73;100.00;54621.16;4953843;28;20027;-74
2023/10/08 02:36:47;;;;;;;13.77;3.53;;;;;;;-144.73;100.00;54670.44;4970610;28;20031;-74
2023/10/08 02:39:21;;;;;;;29.40;3.72;;;;;;;-144.73;100.00;54649.91;4981657;28;20033;-74
2023/10/08 02:41:47;;;;;;;27.00;4.05;;;;;;;-144.73;100.00;54658.13;4958971;28;20042;-73
2023/10/08 02:44:13;;;;;;;23.40;3.67;;;;;;;-144.73;100.00;54670.44;4966051;28;20114;-74
2023/10/08 02:46:47;;;;;;;15.68;3.58;;;;;;;-144.73;100.00;54641.69;4967528;28;20074;-73
2023/10/08 02:49:22;;;;;;;16.40;3.40;;;;;;;-144.73;100.00;54645.78;4958516;28;20557;-74
2023/10/08 02:51:54;;;;;;;18.92;3.72;;;;;;;-144.73;100.00;54647.84;4968073;28;20537;-74
2023/10/08 02:54:23;;;;;;;;;;;;;;;-144.73;100.00;54621.16;4971577;28;20022;-75
2023/10/08 02:56:51;;;;;;;17.00;3.05;;;;;;;-144.73;100.00;54637.59;5005681;28;19918;-74
2023/10/08 02:59:23;;;;;;;20.92;3.75;;;;;;;-144.73;100.00;54649.91;4953650;28;20033;-74
2023/10/08 03:01:55;;;;;;;24.02;3.78;;;;;;;-144.73;100.00;54592.44;4953319;28;20113;-74
2023/10/08 03:04:22;;;;;;;16.33;3.80;;;;;;;-144.73;100.00;54662.22;4953948;28;20019;-75
2023/10/08 03:06:52;;;;;;;27.42;3.42;;;;;;;-144.73;100.00;54654.00;4952979;28;20034;-74
2023/10/08 03:09:24;;;;;;;13.65;2.47;;;;;;;-144.73;100.00;54625.28;4970043;28;20037;-74
2023/10/08 03:11:50;;;;;;;20.90;3.33;;;;;;;-144.73;100.00;54600.63;4970568;28;20035;-73
2023/10/08 03:14:23;;;;;;;10.57;2.10;;;;;;;-144.73;100.00;54658.13;4953677;28;20026;-74
2023/10/08 03:16:53;;;;;;;23.38;4.28;;;;;;;-144.73;100.00;54637.59;4962816;28;20039;-74
2023/10/08 03:19:21;;;;;;;27.52;4.10;;;;;;;-144.73;100.00;54658.13;4970869;28;20037;-73
2023/10/08 03:21:51;;;;;;;24.88;4.07;;;;;;;-144.73;100.00;54633.47;4953497;28;20042;-73
2023/10/08 03:24:29;;;;;;;15.93;2.72;;;;;;;-144.73;100.00;54621.16;4971072;28;20026;-73
2023/10/08 03:27:20;;;;;;;22.90;3.22;;;;;;;-144.73;100.00;54674.53;4980639;28;20046;-73
2023/10/08 03:29:49;;;;;;;17.33;2.60;;;;;;;-144.73;100.00;54645.78;4970677;28;20056;-74
2023/10/08 03:32:15;;;;;;;9.55;2.75;;;;;;;-144.73;100.00;54678.63;4984371;28;20486;-73
2023/10/08 03:34:49;;;;;;;14.40;2.95;;;;;;;-144.73;100.00;54615.00;5005520;28;20113;-73
2023/10/08 03:37:20;;;;;;;20.52;3.30;;;;;;;-144.73;100.00;54649.91;4945651;28;20527;-73
2023/10/08 03:40:43;;;;;;;21.60;2.72;;;;;;;-144.73;100.00;54654.00;4967786;28;20027;-74
2023/10/08 03:42:58;;;;;;;13.45;3.00;;;;;;;-144.73;100.00;54633.47;4962901;28;20035;-73
2023/10/08 03:48:14;;;;;;;11.85;2.80;;;;;;;-144.73;100.00;54662.22;4969702;28;20581;-73
2023/10/08 03:50:41;;;;;;;19.13;2.55;;;;;;;-144.73;100.00;54637.59;4952595;28;20029;-74
2023/10/08 03:53:11;;;;;;;13.55;2.30;;;;;;;-144.73;100.00;54612.97;4970439;28;20053;-75
2023/10/08 03:55:43;;;;;;;24.48;2.75;;;;;;;-144.73;100.00;54625.28;4953104;28;20064;-75
2023/10/08 03:58:27;;;;;;;13.23;3.08;;;;;;;-144.73;100.00;54621.16;4969821;28;20045;-75
2023/10/08 04:01:08;;;;;;;13.20;3.35;;;;;;;-144.73;100.00;54654.00;4952860;28;20038;-74
2023/10/08 04:03:58;;;;;;;10.52;2.40;;;;;;;-144.73;100.00;54649.91;4953140;28;20039;-74
2023/10/08 04:06:22;;;;;;;16.15;2.08;;;;;;;-144.73;100.00;54699.16;4968961;28;20096;-74
2023/10/08 04:11:35;;;;;;;20.40;2.78;;;;;;;-144.73;100.00;54670.44;4969610;28;20039;-73
2023/10/08 04:14:04;;;;;;;16.60;2.63;;;;;;;-144.73;100.00;54631.44;4953030;28;20053;-73
2023/10/08 04:16:31;;;;;;;16.65;3.15;;;;;;;-144.73;100.00;54651.97;4952472;28;20042;-73
2023/10/08 04:18:57;;;;;;;17.90;3.67;;;;;;;-144.73;100.00;54604.75;4953037;28;20061;-73
2023/10/08 04:21:27;;;;;;;18.25;2.83;;;;;;;-144.73;100.00;54635.53;4952325;28;20050;-73
2023/10/08 04:23:53;;;;;;;18.15;3.00;;;;;;;-144.73;100.00;54637.59;4952625;28;20065;-75
2023/10/08 04:26:23;;;;;;;13.57;2.70;;;;;;;-144.73;100.00;54670.44;4969332;28;20062;-75
2023/10/08 04:29:02;;;;;;;18.25;3.90;;;;;;;-144.73;100.00;54637.59;4952561;28;20019;-74
2023/10/08 04:31:38;;;;;;;17.05;2.95;;;;;;;-144.73;100.00;54649.91;4962992;28;20042;-75
2023/10/08 04:34:16;;;;;;;10.75;2.08;;;;;;;-144.73;100.00;54651.97;4959805;28;20130;-74
2023/10/08 04:36:45;;;;;;;25.08;2.85;;;;;;;-144.73;100.00;54629.38;4951993;28;20059;-75
2023/10/08 04:39:21;;;;;;;16.27;2.53;;;;;;;-144.73;100.00;54658.13;4952516;28;20027;-74
2023/10/08 04:41:48;;;;;;;17.60;3.28;;;;;;;-144.73;100.00;54612.97;4952000;28;20118;-75
2023/10/08 04:44:14;;;;;;;18.30;2.50;;;;;;;-144.73;100.00;54645.78;4952863;28;20027;-74
2023/10/08 04:46:47;;;;;;;12.88;2.20;;;;;;;-144.73;100.00;54654.00;4951705;28;20038;-74
2023/10/08 04:49:28;;;;;;;16.65;2.53;;;;;;;-144.73;100.00;54654.00;4969446;28;20042;-74
2023/10/08 04:51:56;;;;;;;;;;;;;;;-144.73;100.00;54703.28;4953878;28;20038;-74
2023/10/08 04:54:23;;;;;;;10.10;2.15;;;;;;;-144.73;100.00;54649.91;4984778;28;20009;-75
2023/10/08 04:56:49;;;;;;;14.52;3.17;;;;;;;-144.73;100.00;54674.53;4952026;28;20049;-75
2023/10/08 04:59:14;;;;;;;17.55;2.65;;;;;;;-144.73;100.00;54588.31;4952887;28;20117;-75
2023/10/08 05:02:12;;;;;;;15.15;2.78;;;;;;;-144.73;100.00;54641.69;4979188;28;20081;-75
2023/10/08 05:04:47;;;;;;;21.35;2.42;;;;;;;-144.73;100.00;54674.53;4962782;28;20034;-75
2023/10/08 05:07:21;;;;;;;14.30;2.60;;;;;;;-144.73;100.00;54670.44;4952048;28;20039;-75
2023/10/08 05:10:03;;;;;;;13.07;2.33;;;;;;;-144.73;100.00;54612.97;4960990;28;20027;-75
2023/10/08 05:12:45;;;;;;;14.95;2.40;;;;;;;-144.73;100.00;54654.00;4952030;28;20096;-75
2023/10/08 05:21:25;;;;;;;23.95;2.55;;;;;;;-144.73;100.00;54647.84;4969267;28;20076;-72
2023/10/08 05:28:30;;;;;;;14.15;2.20;;;;;;;-144.73;100.00;54625.28;4969148;28;20026;-73
2023/10/08 05:34:33;;;;;;;10.82;2.83;;;;;;;-144.73;100.00;54654.00;4972806;28;20023;-75
2023/10/08 05:36:35;;;;;;;15.38;2.55;;;;;;;-144.73;100.00;54674.53;4960925;28;20439;-73
2023/10/08 05:39:04;;;;;;;9.85;1.92;;;;;;;-144.73;100.00;54633.47;4955345;28;20073;-73
2023/10/08 05:41:39;;;;;;;13.27;2.67;;;;;;;-144.73;100.00;54617.06;4978307;28;20039;-74
2023/10/08 05:44:14;;;;;;;9.85;3.00;;;;;;;-144.73;100.00;54621.16;4952680;28;20023;-73
2023/10/08 05:46:48;;;;;;;11.52;2.05;;;;;;;-144.73;100.00;54629.38;4954697;28;20058;-73
2023/10/08 05:51:44;;;;;;;14.70;2.25;;;;;;;-144.73;100.00;54670.44;4972287;28;20039;-74
2023/10/08 06:02:29;;;;;;;13.27;3.42;;;;;;;-144.73;100.00;54637.59;4972561;28;20512;-74
2023/10/08 06:18:18;;;;;;;17.60;2.13;;;;;;;-144.73;100.00;54651.97;4972394;28;20084;-75
2023/10/08 06:20:48;;;;;;;15.25;2.40;;;;;;;-144.73;100.00;54633.47;4954174;28;20027;-75
2023/10/08 06:23:20;;;;;;;17.70;3.13;;;;;;;-144.73;100.00;54654.00;4955497;28;20023;-73
2023/10/08 06:26:05;;;;;;;20.55;2.88;;;;;;;-144.73;100.00;54670.44;4955086;28;20056;-73
2023/10/08 06:28:34;;;;;;;11.52;3.40;;;;;;;-144.73;100.00;54588.31;4955406;28;20023;-74
2023/10/08 06:31:01;;;;;;;26.02;2.80;;;;;;;-144.73;100.00;54658.13;4954861;28;20037;-75
2023/10/08 06:33:30;;;;;;;16.75;2.45;;;;;;;-144.73;100.00;54662.22;4971022;28;20026;-75
2023/10/08 06:38:38;;;;;;;26.27;5.32;;;;;;;-144.73;100.00;54625.28;4972135;28;20050;-74
2023/10/08 06:46:34;;;;;;;22.27;2.95;;;;;;;-144.73;100.00;54619.13;4970923;28;20047;-73
2023/10/08 06:49:00;;;;;;;15.63;3.22;;;;;;;-144.73;100.00;54639.63;4970537;28;20488;-73
2023/10/08 06:51:25;;;;;;;20.92;3.42;;;;;;;-144.73;100.00;54682.75;4953767;28;20038;-74
2023/10/08 06:53:51;;;;;;;25.50;8.93;;;;;;;-144.73;100.00;54651.97;4954796;28;20038;-73
2023/10/08 06:56:19;;;;;;;26.08;3.38;;;;;;;-144.73;100.00;54654.00;4969781;28;20459;-72
2023/10/08 06:58:49;;;;;;;15.35;2.60;;;;;;;-144.73;100.00;54623.22;4954383;28;20023;-72
2023/10/08 07:01:21;;;;;;;17.85;3.45;;;;;;;-144.73;100.00;54633.47;4954235;28;20027;-73
2023/10/08 07:03:50;;;;;;;12.50;2.92;;;;;;;-144.73;100.00;54596.53;4954240;28;20019;-74
2023/10/08 07:06:31;;;;;;;18.58;3.22;;;;;;;-144.73;100.00;54684.78;4954006;28;20039;-73
2023/10/08 07:08:59;;;;;;;11.40;2.60;;;;;;;-144.73;100.00;54645.78;4953634;28;20030;-70
2023/10/08 07:11:29;;;;;;;13.25;2.90;;;;;;;-144.73;100.00;54633.47;4952436;28;20039;-70
2023/10/08 07:13:55;;;;;;;11.65;2.25;;;;;;;-144.73;100.00;54662.22;4971962;28;20027;-70
2023/10/08 07:16:21;;;;;;;10.23;2.30;;;;;;;-144.73;100.00;54612.97;4960597;28;20084;-70
2023/10/08 07:18:52;;;;;;;22.13;2.95;;;;;;;-144.73;100.00;54623.22;4953468;28;20113;-69
2023/10/08 07:21:18;;;;;;;9.75;1.98;;;;;;;-144.73;100.00;54623.22;4949328;28;20035;-70
2023/10/08 07:24:09;;;;;;;10.35;2.38;;;;;;;-144.73;100.00;54654.00;4951137;28;20195;-70
2023/10/08 07:29:26;;;;;;;7.00;2.00;;;;;;;-144.73;100.00;54617.06;4972019;28;20076;-69
2023/10/08 07:31:55;;;;;;;9.63;2.05;;;;;;;-144.73;100.00;54629.38;4954956;28;20038;-69
2023/10/08 07:36:51;;;;;;;6.38;1.80;;;;;;;-144.73;100.00;54576.00;4970642;28;20031;-70
2023/10/08 07:39:33;;;;;;;11.65;2.05;;;;;;;-144.73;100.00;54617.06;4952071;28;20034;-70
2023/10/08 07:42:06;;;;;;;12.30;2.25;;;;;;;-144.73;100.00;54612.97;4969328;28;20037;-69
2023/10/08 07:44:31;;;;;;;11.73;2.42;;;;;;;-144.73;100.00;54645.78;4954128;28;20038;-69
2023/10/08 07:46:57;;;;;;;5.03;1.58;;;;;;;-144.73;100.00;54608.84;4971140;28;20146;-69
2023/10/08 07:49:25;;;;;;;7.78;2.67;;;;;;;-144.73;100.00;54629.38;4953947;28;20031;-70
2023/10/08 07:51:51;;;;;;;22.23;2.72;;;;;;;-144.73;100.00;54615.00;4954927;28;20039;-70
2023/10/08 07:54:22;;;;;;;10.63;2.40;;;;;;;-144.73;100.00;54641.69;4970210;28;20031;-70
2023/10/08 07:57:09;;;;;;;8.07;2.20;;;;;;;-144.73;100.00;54604.75;4951361;28;20046;-70
2023/10/08 07:59:46;;;;;;;14.93;2.03;;;;;;;-144.73;100.00;54598.59;4952799;28;20057;-70
2023/10/08 08:02:12;;;;;;;10.63;1.92;;;;;;;-144.73;100.00;54617.06;4953182;28;20102;-70
2023/10/08 08:04:50;;;;;;;8.93;1.90;;;;;;;-144.73;100.00;54629.38;4955628;28;20058;-71
2023/10/08 08:07:16;;;;;;;17.05;7.35;;;;;;;-144.73;100.00;54612.97;4952295;28;20058;-71
2023/10/08 08:09:48;;;;;;;8.82;2.00;;;;;;;-144.73;100.00;54617.06;4949242;28;20050;-70
2023/10/08 08:12:13;;;;;;;;;;;;;;;-144.73;100.00;54633.47;4970580;28;20500;-70
2023/10/08 08:14:41;;;;;;;9.18;1.90;;;;;;;-144.73;100.00;54625.28;4979941;28;19964;-71
2023/10/08 08:17:13;;;;;;;9.55;2.13;;;;;;;-144.73;100.00;54576.00;4953081;28;20051;-71
2023/10/08 08:19:40;;;;;;;9.10;1.80;;;;;;;-144.73;100.00;54580.13;4969691;28;20030;-71
2023/10/08 08:22:15;;;;;;;9.52;2.40;;;;;;;-144.73;100.00;54584.22;4970086;28;20031;-70
2023/10/08 08:24:44;;;;;;;6.70;1.92;;;;;;;-144.73;100.00;54621.16;4953334;28;20023;-70
2023/10/08 08:27:19;;;;;;;10.13;2.33;;;;;;;-144.73;100.00;54610.91;4955607;28;20034;-71
2023/10/08 08:29:44;;;;;;;8.50;1.77;;;;;;;-144.73;100.00;54633.47;4968263;28;20027;-70
2023/10/08 08:32:15;;;;;;;7.63;2.13;;;;;;;-144.73;100.00;54584.22;4966504;28;20074;-69
2023/10/08 08:34:44;;;;;;;9.00;2.42;;;;;;;-144.73;100.00;54596.53;4951067;28;20018;-71
2023/10/08 08:37:13;;;;;;;7.13;1.85;;;;;;;-144.73;100.00;54592.44;4950219;28;20388;-71
2023/10/08 08:39:39;;;;;;;8.88;2.03;;;;;;;-144.73;100.00;54600.63;4968201;28;20017;-71
2023/10/08 08:42:04;;;;;;;15.00;2.28;;;;;;;-144.73;100.00;54588.31;4949213;28;20089;-71
2023/10/08 08:44:32;;;;;;;8.00;1.45;;;;;;;-144.73;100.00;54600.63;4979840;28;20030;-70
2023/10/08 08:47:04;;;;;;;11.63;1.33;;;;;;;-144.73;100.00;54576.00;4951435;28;20039;-71
2023/10/08 08:49:39;;;;;;;8.27;2.10;;;;;;;-144.73;100.00;54596.53;4981166;28;20114;-71
2023/10/08 08:52:04;;;;;;;11.52;2.03;;;;;;;-144.73;100.00;54582.16;4966499;28;20031;-71
2023/10/08 08:54:33;;;;;;;8.63;2.40;;;;;;;-144.73;100.00;54617.06;4950539;28;20448;-71
2023/10/08 08:57:03;;;;;;;7.10;2.35;;;;;;;-144.73;100.00;54592.44;4949295;28;20034;-71
2023/10/08 08:59:30;;;;;;;9.23;1.77;;;;;;;-144.73;100.00;54563.69;4983846;28;20052;-70
2023/10/08 09:01:57;;;;;;;9.38;1.52;;;;;;;-144.73;100.00;54580.13;4950071;28;20027;-70
2023/10/08 09:04:30;;;;;;;8.95;1.80;;;;;;;-144.73;100.00;54590.38;4951246;28;20087;-71
2023/10/08 09:06:57;;;;;;;7.30;2.35;;;;;;;-144.73;100.00;54596.53;4954916;28;20566;-71
2023/10/08 09:09:23;;;;;;;11.50;2.00;;;;;;;-144.73;100.00;54551.38;4953302;28;20052;-71
2023/10/08 09:11:52;;;;;;;5.00;1.48;;;;;;;-144.73;100.00;54637.59;4952559;28;20114;-71
2023/10/08 09:14:22;;;;;;;16.20;2.10;;;;;;;-144.73;100.00;54617.06;4991311;28;20029;-70
2023/10/08 09:16:54;;;;;;;20.17;2.38;;;;;;;-144.73;100.00;54600.63;4949567;28;20034;-70
2023/10/08 09:19:22;;;;;;;5.25;1.73;;;;;;;-144.73;100.00;54569.84;4970995;28;20053;-70
2023/10/08 09:22:01;;;;;;;8.45;1.58;;;;;;;-144.73;100.00;54600.63;4952780;28;20515;-69
2023/10/08 09:24:26;;;;;;;12.30;1.55;;;;;;;-144.73;100.00;54596.53;4989795;28;20058;-70
2023/10/08 09:26:52;;;;;;;8.93;2.05;;;;;;;-144.73;100.00;54551.38;4967173;28;20077;-70
2023/10/08 09:29:22;;;;;;;10.00;1.85;;;;;;;-144.73;100.00;54580.13;4977331;28;20023;-70
2023/10/08 09:31:59;;;;;;;8.93;1.80;;;;;;;-144.73;100.00;54596.53;4964068;28;20038;-70
2023/10/08 09:34:29;;;;;;;7.53;1.60;;;;;;;-144.73;100.00;54600.63;4971118;28;20023;-70
2023/10/08 09:36:56;;;;;;;4.47;1.10;;;;;;;-144.73;98.40;54588.31;4969369;28;20031;-70
2023/10/08 09:39:26;;;;;;;7.85;1.60;;;;;;;-144.73;100.00;54582.16;4970195;28;20022;-70
2023/10/08 09:42:11;;;;;;;5.18;1.40;;;;;;;-144.73;98.46;54596.53;4952689;28;20034;-70
2023/10/08 09:44:37;;;;;;;7.53;1.38;;;;;;;-144.73;99.84;54563.69;4968020;28;20026;-70
2023/10/08 09:47:10;;;;;;;3.15;1.30;;;;;;;-144.73;95.65;54588.31;4955064;28;20077;-70
2023/10/08 09:49:38;;;;;;;10.30;1.63;;;;;;;-144.73;95.20;54565.75;4968121;28;20045;-71
2023/10/08 09:52:06;;;;;;;8.13;1.65;;;;;;;-144.73;92.39;54608.84;4969266;28;20038;-71
2023/10/08 09:54:42;;;;;;;5.63;1.42;;;;;;;-144.73;94.78;54588.31;4952653;28;20027;-70
2023/10/08 09:57:10;;;;;;;7.32;2.10;;;;;;;-144.73;88.79;54596.53;4951913;28;20043;-71
2023/10/08 09:59:37;;;;;;;8.25;2.50;;;;;;;-144.73;89.49;54539.06;4987527;28;20030;-71
2023/10/08 10:02:04;;;;;;;4.93;1.45;;;;;;;-144.73;86.70;54600.63;4952964;28;20046;-71
2023/10/08 10:04:31;;;;;;;9.00;1.77;;;;;;;-144.73;89.96;54600.63;4952435;28;20026;-71
2023/10/08 10:07:00;;;;;;;5.70;2.38;;;;;;;-144.73;92.86;54592.44;4970494;28;20049;-71
2023/10/08 10:09:26;;;;;;;6.97;1.90;;;;;;;-144.73;90.12;54553.44;4968439;28;20022;-71
2023/10/08 10:11:54;;;;;;;6.90;1.63;;;;;;;-144.73;89.21;54588.31;4952069;28;20031;-70
2023/10/08 10:14:23;;;;;;;4.65;1.40;;;;;;;-144.73;86.16;54571.91;4964934;28;20030;-71
2023/10/08 10:17:28;;;;;;;5.30;1.48;;;;;;;-144.73;87.16;54584.22;4953324;28;20114;-72
2023/10/08 10:19:59;;;;;;;5.47;1.40;;;;;;;-144.73;85.80;54557.53;4988867;23;20051;-72
2023/10/08 10:22:33;;;;;;;8.02;1.80;;;;;;;-144.73;87.60;54588.31;4980181;28;20042;-73
2023/10/08 10:25:04;;;;;;;6.20;1.73;;;;;;;-144.73;87.72;54555.47;4980822;28;20026;-72
2023/10/08 10:27:29;;;;;;;13.70;1.80;;;;;;;-144.73;87.95;54543.16;4963941;28;20041;-71
2023/10/08 10:30:08;;;;;;;6.90;2.33;;;;;;;-144.73;84.73;54594.47;5000481;28;20038;-71
2023/10/08 10:32:37;;;;;;;4.70;1.73;;;;;;;-144.73;81.28;54590.38;4956103;28;20031;-71
2023/10/08 10:35:05;;;;;;;6.47;3.10;;;;;;;-144.73;80.30;54584.22;4949288;28;20068;-72
2023/10/08 10:37:41;;;;;;;5.32;2.67;;;;;;;-144.73;80.80;54580.13;4946836;28;20031;-72
2023/10/08 10:40:12;;;;;;;6.63;2.45;;;;;;;-144.73;81.51;54565.75;4944263;28;20031;-71
2023/10/08 10:42:42;;;;;;;5.05;1.55;;;;;;;-144.73;73.59;54584.22;4944551;28;20124;-72
2023/10/08 10:45:40;;;;;;;3.75;2.20;;;;;;;-144.73;73.21;54551.38;4958148;28;20027;-71
2023/10/08 10:48:21;;;;;;;8.32;3.17;;;;;;;-144.73;73.11;54553.44;4960478;28;20031;-71
2023/10/08 10:51:07;;;;;;;7.15;2.17;;;;;;;-144.73;65.35;54522.63;4948438;28;20037;-71
2023/10/08 10:53:56;;;;;;;4.65;2.10;;;;;;;-144.73;68.20;54559.59;4956275;28;20050;-72
2023/10/08 10:56:29;;;;;;;5.95;1.92;;;;;;;-144.73;67.89;54555.47;4965941;28;20058;-71
2023/10/08 10:59:53;;;;;;;9.60;2.38;;;;;;;-144.73;63.96;54571.91;4944051;28;20050;-71
2023/10/08 11:01:54;;;;;;;8.18;2.78;;;;;;;-144.73;63.94;54551.38;4947570;28;20039;-73
2023/10/08 11:04:28;;;;;;;5.85;1.73;;;;;;;-144.73;63.48;54604.75;4944938;28;20382;-71
2023/10/08 11:06:58;;;;;;;7.53;3.25;;;;;;;-144.73;58.39;54551.38;4959884;28;20035;-71
2023/10/08 11:09:37;;;;;;;7.25;1.98;;;;;;;-144.73;59.16;54514.44;4952407;28;20404;-72
2023/10/08 11:12:10;;;;;;;8.93;1.60;;;;;;;-144.73;62.93;54530.84;4964458;28;20123;-72
2023/10/08 11:14:41;;;;;;;14.48;1.75;;;;;;;-144.73;62.57;54551.38;4947796;28;20022;-72
2023/10/08 11:17:16;;;;;;;2.75;1.58;;;;;;;-144.73;58.65;54555.47;4948391;28;20110;-72
2023/10/08 11:19:45;;;;;;;3.08;1.33;;;;;;;-144.73;62.85;54578.06;4963446;28;20103;-72
2023/10/08 11:22:16;;;;;;;7.28;1.60;;;;;;;-144.73;57.93;54510.31;4960616;28;20114;-71
2023/10/08 11:24:44;;;;;;;5.68;1.40;;;;;;;-144.73;64.39;54567.81;4958763;28;20031;-71
2023/10/08 11:27:16;;;;;;;5.70;1.90;;;;;;;-144.73;65.21;54518.53;4969356;28;20042;-72
2023/10/08 11:29:43;;;;;;;6.22;1.63;;;;;;;-144.73;66.64;54539.06;4955752;28;20050;-72
2023/10/08 11:32:12;;;;;;;6.40;2.00;;;;;;;-144.73;73.14;54600.63;4945748;28;20032;-71
2023/10/08 11:34:39;;;;;;;7.05;1.40;;;;;;;-144.73;72.15;54584.22;4943024;28;20031;-73
2023/10/08 11:37:19;;;;;;;5.60;1.50;;;;;;;-144.73;66.41;54518.53;4938874;28;20059;-72
2023/10/08 11:39:46;;;;;;;7.72;1.75;;;;;;;-144.73;65.47;54576.00;4940902;28;20521;-73
2023/10/08 11:44:59;;;;;;;8.25;1.38;;;;;;;-144.73;64.49;54559.59;4960215;28;20027;-72
2023/10/08 11:47:30;;;;;;;6.00;1.70;;;;;;;-144.73;62.61;54588.31;4947869;28;20119;-72
2023/10/08 11:50:09;;;;;;;5.15;2.00;;;;;;;-144.73;65.10;54567.81;4945912;28;20039;-72
2023/10/08 11:52:41;;;;;;;6.60;1.70;;;;;;;-144.73;61.18;54520.59;4954771;28;20078;-72
2023/10/08 11:55:20;;;;;;;11.52;2.33;;;;;;;-144.73;57.58;54522.63;4964613;28;20030;-73
2023/10/08 11:57:50;;;;;;;5.88;1.67;;;;;;;-144.73;58.08;54489.81;4964864;28;20038;-71
2023/10/08 12:00:19;;;;;;;3.92;1.27;;;;;;;-144.73;54.36;54559.59;4954013;28;20031;-72
2023/10/08 12:02:48;;;;;;;5.25;1.35;;;;;;;-144.73;56.18;54502.13;4959424;28;20039;-73
2023/10/08 12:05:19;;;;;;;4.55;1.50;;;;;;;-144.73;58.53;54539.06;4959365;28;20038;-72
2023/10/08 12:07:52;;;;;;;6.70;1.30;;;;;;;-144.73;54.13;54514.44;4960784;28;20035;-72
2023/10/08 12:10:25;;;;;;;5.85;1.38;;;;;;;-144.73;51.66;54506.22;4961021;28;20031;-71
2023/10/08 12:12:59;;;;;;;4.40;1.30;;;;;;;-144.73;49.23;54510.31;4956260;28;20047;-74
2023/10/08 12:15:34;;;;;;;4.65;1.40;;;;;;;-144.73;51.99;54551.38;4963221;28;20027;-71
2023/10/08 12:18:11;;;;;;;5.07;1.27;;;;;;;-144.73;51.32;54547.28;4955879;28;20071;-72
2023/10/08 12:20:43;;;;;;;8.02;1.55;;;;;;;-144.73;52.43;54551.38;4963963;28;20023;-72
2023/10/08 12:23:33;;;;;;;3.00;1.10;;;;;;;-144.73;51.68;54506.22;4955667;28;20113;-72
2023/10/08 12:25:59;;;;;;;2.70;1.15;;;;;;;-144.73;51.71;54571.91;4957529;28;20023;-72
2023/10/08 12:28:27;;;;;;;6.00;1.77;;;;;;;-144.73;59.07;54588.31;4958017;28;20030;-72
2023/10/08 12:30:53;;;;;;;6.20;1.52;;;;;;;-144.73;60.11;54543.16;4953141;28;20030;-72
2023/10/08 12:33:24;;;;;;;9.35;1.77;;;;;;;-144.73;64.85;54489.81;4940082;28;20123;-72